createdAt,value
2023-04-03T00:00:50.446Z,103225.72
2023-04-03T00:03:18.504Z,103231.53
2023-04-03T00:05:45.334Z,103232.44
2023-04-03T00:08:11.795Z,103236.03
2023-04-03T00:10:38.994Z,103244.78
2023-04-03T00:13:06.965Z,103243.75
2023-04-03T00:15:33.850Z,103237.03
2023-04-03T00:18:00.330Z,103241.56
2023-04-03T00:20:28.129Z,103239.88
2023-04-03T00:22:55.269Z,103247.69
2023-04-03T00:25:22.292Z,103252.03
2023-04-03T00:27:48.764Z,103238.72
2023-04-03T00:30:18.007Z,103243.13
2023-04-03T00:32:44.675Z,103247.34
2023-04-03T00:35:11.528Z,103248.25
2023-04-03T00:37:38.011Z,103249.66
2023-04-03T00:40:05.160Z,103247.69
2023-04-03T00:42:32.128Z,103243.41
2023-04-03T00:44:58.477Z,103257.94
2023-04-03T00:47:26.135Z,103257.97
2023-04-03T00:49:53.142Z,103257.16
2023-04-03T00:52:24.352Z,103258.25
2023-04-03T00:54:55.521Z,103262.63
2023-04-03T00:57:23.431Z,103254.66
2023-04-03T00:59:54.344Z,103255.31
2023-04-03T01:02:21.268Z,103272.34
2023-04-03T01:04:48.274Z,103261.94
2023-04-03T01:07:19.277Z,103262.81
2023-04-03T01:09:47.925Z,103268.09
2023-04-03T01:12:18.870Z,103273.22
2023-04-03T01:14:49.729Z,103264.06
2023-04-03T01:17:36.802Z,103267.63
2023-04-03T01:20:22.806Z,103276.28
2023-04-03T01:22:52.736Z,103278.69
2023-04-03T01:25:19.231Z,103270.03
2023-04-03T01:27:45.811Z,103271.94
2023-04-03T01:30:15.166Z,103258.38
2023-04-03T01:32:41.699Z,103270.38
2023-04-03T01:35:09.897Z,103268.66
2023-04-03T01:37:36.421Z,103272.22
2023-04-03T01:40:03.924Z,103270.75
2023-04-03T01:42:30.463Z,103266.69
2023-04-03T01:44:56.888Z,103263.13
2023-04-03T01:47:23.426Z,103264.13
2023-04-03T01:49:49.853Z,103267.69
2023-04-03T01:52:16.256Z,103264.66
2023-04-03T01:54:42.701Z,103261.34
2023-04-03T01:57:09.174Z,103256.44
2023-04-03T01:59:35.578Z,103260.66
2023-04-03T02:02:02.336Z,103264.81
2023-04-03T02:04:28.862Z,103269.28
2023-04-03T02:06:55.368Z,103267.81
2023-04-03T02:09:21.844Z,103278.97
2023-04-03T02:11:48.279Z,103275.34
2023-04-03T02:14:14.749Z,103276.41
2023-04-03T02:16:41.213Z,103287.63
2023-04-03T02:19:07.756Z,103293.88
2023-04-03T02:21:34.174Z,103286.19
2023-04-03T02:24:00.652Z,103285.94
2023-04-03T02:26:27.599Z,103282.72
2023-04-03T02:28:54.010Z,103295.19
2023-04-03T02:31:21.742Z,103276.53
2023-04-03T02:33:48.189Z,103276.41
2023-04-03T02:36:14.648Z,103275.63
2023-04-03T02:38:41.375Z,103286.09
2023-04-03T02:41:10.482Z,103278.41
2023-04-03T02:43:37.774Z,103283.22
2023-04-03T02:46:04.722Z,103285.78
2023-04-03T02:48:31.551Z,103290.19
2023-04-03T02:50:57.998Z,103291.75
2023-04-03T02:53:24.475Z,103296.88
2023-04-03T02:55:51.027Z,103296.94
2023-04-03T02:58:17.448Z,103306.34
2023-04-03T03:00:43.920Z,103296.06
2023-04-03T03:03:10.461Z,103305.53
2023-04-03T03:05:37.140Z,103314.22
2023-04-03T03:08:03.601Z,103309.44
2023-04-03T03:10:30.035Z,103313.81
2023-04-03T03:12:56.441Z,103314.66
2023-04-03T03:15:23.025Z,103315.69
2023-04-03T03:17:49.518Z,103319.34
2023-04-03T03:20:16.422Z,103316.94
2023-04-03T03:22:42.898Z,103318.56
2023-04-03T03:25:09.881Z,103313.56
2023-04-03T03:27:36.278Z,103318.63
2023-04-03T03:30:02.758Z,103325.63
2023-04-03T03:32:29.213Z,103323.16
2023-04-03T03:34:55.635Z,103322.50
2023-04-03T03:37:22.035Z,103320.09
2023-04-03T03:39:48.467Z,103326.03
2023-04-03T03:42:14.884Z,103329.56
2023-04-03T03:44:41.325Z,103322.03
2023-04-03T03:47:10.555Z,103324.50
2023-04-03T03:49:36.962Z,103326.13
2023-04-03T03:52:03.388Z,103326.13
2023-04-03T03:54:29.786Z,103323.63
2023-04-03T03:56:56.559Z,103328.06
2023-04-03T03:59:23.028Z,103330.59
2023-04-03T04:01:49.558Z,103331.53
2023-04-03T04:04:16.057Z,103334.03
2023-04-03T04:06:42.539Z,103332.44
2023-04-03T04:09:10.103Z,103336.69
2023-04-03T04:11:36.676Z,103330.81
2023-04-03T04:14:03.132Z,103331.81
2023-04-03T04:16:29.711Z,103343.09
2023-04-03T04:18:56.155Z,103343.03
2023-04-03T04:21:22.824Z,103340.59
2023-04-03T04:23:49.309Z,103342.53
2023-04-03T04:26:15.844Z,103343.53
2023-04-03T04:28:42.330Z,103350.31
2023-04-03T04:31:08.789Z,103343.38
2023-04-03T04:33:35.643Z,103351.84
2023-04-03T04:36:02.128Z,103350.22
2023-04-03T04:38:28.608Z,103341.81
2023-04-03T04:40:55.021Z,103346.19
2023-04-03T04:43:21.445Z,103351.34
2023-04-03T04:45:48.067Z,103359.88
2023-04-03T04:48:14.548Z,103361.75
2023-04-03T04:50:41.069Z,103361.09
2023-04-03T04:53:07.566Z,103367.00
2023-04-03T04:55:34.027Z,103355.13
2023-04-03T04:58:00.615Z,103354.97
2023-04-03T05:00:27.226Z,103352.59
2023-04-03T05:02:53.634Z,103360.41
2023-04-03T05:05:20.146Z,103361.88
2023-04-03T05:07:46.561Z,103357.50
2023-04-03T05:10:13.035Z,103363.66
2023-04-03T05:12:39.428Z,103372.09
2023-04-03T05:15:06.519Z,103358.47
2023-04-03T05:17:32.974Z,103368.47
2023-04-03T05:19:59.412Z,103366.53
2023-04-03T05:22:25.872Z,103367.91
2023-04-03T05:24:52.307Z,103372.25
2023-04-03T05:27:18.830Z,103375.25
2023-04-03T05:29:45.491Z,103377.44
2023-04-03T05:32:12.294Z,103378.94
2023-04-03T05:34:39.015Z,103371.06
2023-04-03T05:37:06.052Z,103370.41
2023-04-03T05:39:33.051Z,103364.16
2023-04-03T05:41:59.474Z,103372.84
2023-04-03T05:44:25.916Z,103374.66
2023-04-03T05:46:52.398Z,103366.31
2023-04-03T05:49:18.812Z,103380.75
2023-04-03T05:51:45.882Z,103381.78
2023-04-03T05:54:18.708Z,103388.53
2023-04-03T05:56:45.552Z,103385.94
2023-04-03T05:59:12.082Z,103379.03
2023-04-03T06:01:38.685Z,103394.75
2023-04-03T06:04:05.377Z,103401.38
2023-04-03T06:06:54.885Z,103399.94
2023-04-03T06:09:23.600Z,103397.09
2023-04-03T06:11:50.364Z,103399.53
2023-04-03T06:14:16.926Z,103403.91
2023-04-03T06:16:44.630Z,103397.19
2023-04-03T06:19:12.617Z,103404.44
2023-04-03T06:21:39.416Z,103406.75
2023-04-03T06:24:07.264Z,103409.72
2023-04-03T06:26:34.824Z,103399.50
2023-04-03T06:29:01.436Z,103399.72
2023-04-03T06:31:27.908Z,103406.91
2023-04-03T06:33:54.600Z,103398.09
2023-04-03T06:36:22.108Z,103408.94
2023-04-03T06:38:49.448Z,103403.66
2023-04-03T06:41:17.396Z,103410.19
2023-04-03T06:43:46.866Z,103410.53
2023-04-03T06:46:18.097Z,103412.22
2023-04-03T06:48:45.467Z,103413.53
2023-04-03T06:51:28.649Z,103415.28
2023-04-03T06:53:58.469Z,103414.38
2023-04-03T06:56:26.208Z,103420.91
2023-04-03T06:58:55.443Z,103423.91
2023-04-03T07:01:22.498Z,103431.56
2023-04-03T07:03:49.619Z,103426.63
2023-04-03T07:06:17.904Z,103431.16
2023-04-03T07:08:46.695Z,103432.47
2023-04-03T07:11:13.440Z,103438.34
2023-04-03T07:13:41.990Z,103432.78
2023-04-03T07:16:09.408Z,103439.06
2023-04-03T07:18:36.919Z,103442.94
2023-04-03T07:21:05.066Z,103444.50
2023-04-03T07:23:31.587Z,103439.63
2023-04-03T07:25:58.342Z,103448.47
2023-04-03T07:28:26.817Z,103446.84
2023-04-03T07:30:59.888Z,103449.84
2023-04-03T07:33:27.130Z,103449.03
2023-04-03T07:35:53.513Z,103448.41
2023-04-03T07:38:20.212Z,103455.22
2023-04-03T07:40:50.897Z,103459.75
2023-04-03T07:43:18.532Z,103454.47
2023-04-03T07:45:46.141Z,103462.13
2023-04-03T07:48:12.861Z,103461.03
2023-04-03T07:50:41.715Z,103453.81
2023-04-03T07:53:08.827Z,103462.38
2023-04-03T07:55:38.249Z,103467.13
2023-04-03T07:58:05.754Z,103470.97
2023-04-03T08:00:32.250Z,103462.25
2023-04-03T08:02:59.009Z,103465.44
2023-04-03T08:05:26.273Z,103467.06
2023-04-03T08:07:53.135Z,103464.25
2023-04-03T08:10:19.556Z,103474.34
2023-04-03T08:12:49.318Z,103466.88
2023-04-03T08:15:15.955Z,103475.34
2023-04-03T08:17:44.502Z,103480.59
2023-04-03T08:20:11.285Z,103478.09
2023-04-03T08:22:37.734Z,103483.25
2023-04-03T08:25:04.410Z,103486.94
2023-04-03T08:27:33.834Z,103490.09
2023-04-03T08:30:00.849Z,103484.09
2023-04-03T08:32:27.925Z,103492.34
2023-04-03T08:34:54.392Z,103496.38
2023-04-03T08:37:20.850Z,103493.50
2023-04-03T08:39:48.701Z,103504.63
2023-04-03T08:42:41.665Z,103513.53
2023-04-03T08:45:22.661Z,103500.22
2023-04-03T08:48:01.601Z,103511.03
2023-04-03T08:50:36.184Z,103494.69
2023-04-03T08:53:06.134Z,103505.47
2023-04-03T08:55:45.908Z,103496.06
2023-04-03T08:58:34.985Z,103503.94
2023-04-03T09:01:05.263Z,103495.91
2023-04-03T09:03:34.129Z,103496.69
2023-04-03T09:06:14.681Z,103490.66
2023-04-03T09:08:52.423Z,103488.72
2023-04-03T09:11:31.567Z,103483.09
2023-04-03T09:14:13.505Z,103497.13
2023-04-03T09:16:53.396Z,103490.66
2023-04-03T09:19:43.223Z,103497.75
2023-04-03T09:22:18.821Z,103486.94
2023-04-03T09:25:25.393Z,103496.19
2023-04-03T09:27:52.424Z,103494.72
2023-04-03T09:30:22.636Z,103489.69
2023-04-03T09:32:52.155Z,103491.03
2023-04-03T09:35:29.800Z,103484.06
2023-04-03T09:38:15.285Z,103474.53
2023-04-03T09:41:15.919Z,103478.31
2023-04-03T09:43:53.969Z,103479.06
2023-04-03T09:46:31.209Z,103491.34
2023-04-03T09:49:08.371Z,103481.00
2023-04-03T09:51:36.692Z,103485.63
2023-04-03T09:54:31.688Z,103466.69
2023-04-03T09:57:05.093Z,103466.53
2023-04-03T09:59:32.502Z,103462.13
2023-04-03T10:02:32.080Z,103459.09
2023-04-03T10:05:08.901Z,103453.91
2023-04-03T10:07:38.955Z,103450.03
2023-04-03T10:10:23.705Z,103441.00
2023-04-03T10:13:10.564Z,103434.97
2023-04-03T10:15:46.117Z,103450.44
2023-04-03T10:18:34.721Z,103453.91
2023-04-03T10:21:14.457Z,103440.53
2023-04-03T10:23:54.599Z,103428.34
2023-04-03T10:27:00.126Z,103432.53
2023-04-03T10:30:11.945Z,103417.28
2023-04-03T10:33:00.155Z,103415.13
2023-04-03T10:35:41.881Z,103416.38
2023-04-03T10:38:31.997Z,103405.41
2023-04-03T10:41:26.638Z,103402.00
2023-04-03T10:44:05.143Z,103410.28
2023-04-03T10:46:54.569Z,103385.94
2023-04-03T10:49:31.815Z,103393.03
2023-04-03T10:52:26.474Z,103403.59
2023-04-03T10:55:20.291Z,103397.56
2023-04-03T10:57:48.640Z,103388.19
2023-04-03T11:00:25.982Z,103389.19
2023-04-03T11:02:57.596Z,103381.44
2023-04-03T11:05:45.873Z,103382.38
2023-04-03T11:08:17.783Z,103374.84
2023-04-03T11:10:48.126Z,103392.97
2023-04-03T11:13:32.686Z,103396.47
2023-04-03T11:15:59.521Z,103374.19
2023-04-03T11:18:56.601Z,103377.09
2023-04-03T11:21:36.920Z,103377.09
2023-04-03T11:24:12.532Z,103363.94
2023-04-03T11:26:43.174Z,103372.75
2023-04-03T11:29:24.771Z,103366.81
2023-04-03T11:32:15.804Z,103390.25
2023-04-03T11:34:45.713Z,103367.31
2023-04-03T11:37:34.978Z,103364.53
2023-04-03T11:40:16.937Z,103372.00
2023-04-03T11:42:47.841Z,103361.22
2023-04-03T11:45:24.441Z,103360.66
2023-04-03T11:47:50.846Z,103353.38
2023-04-03T11:50:32.681Z,103359.31
2023-04-03T11:53:08.848Z,103356.38
2023-04-03T11:55:35.531Z,103357.00
2023-04-03T11:58:02.255Z,103359.16
2023-04-03T12:00:48.726Z,103354.25
2023-04-03T12:03:24.606Z,103355.63
2023-04-03T12:05:57.217Z,103349.53
2023-04-03T12:08:47.973Z,103351.06
2023-04-03T12:11:14.650Z,103343.97
2023-04-03T12:13:50.822Z,103357.09
2023-04-03T12:16:31.319Z,103350.06
2023-04-03T12:19:04.925Z,103342.88
2023-04-03T12:21:37.435Z,103327.13
2023-04-03T12:24:09.754Z,103324.03
2023-04-03T12:26:52.603Z,103316.84
2023-04-03T12:29:25.622Z,103308.78
2023-04-03T12:32:23.806Z,103300.09
2023-04-03T12:35:08.629Z,103309.72
2023-04-03T12:38:04.065Z,103304.72
2023-04-03T12:40:42.988Z,103301.66
2023-04-03T12:44:03.754Z,103309.81
2023-04-03T12:46:45.390Z,103292.56
2023-04-03T12:49:21.150Z,103292.59
2023-04-03T12:51:48.188Z,103287.91
2023-04-03T12:54:20.578Z,103282.72
2023-04-03T12:56:47.463Z,103279.41
2023-04-03T12:59:24.178Z,103284.22
2023-04-03T13:01:58.794Z,103283.91
2023-04-03T13:04:26.005Z,103264.66
2023-04-03T13:06:52.487Z,103273.31
2023-04-03T13:09:25.115Z,103263.16
2023-04-03T13:11:58.317Z,103270.28
2023-04-03T13:14:29.327Z,103275.19
2023-04-03T13:16:58.131Z,103264.50
2023-04-03T13:19:30.023Z,103264.59
2023-04-03T13:22:10.305Z,103252.22
2023-04-03T13:24:39.850Z,103258.22
2023-04-03T13:27:07.418Z,103253.59
2023-04-03T13:29:36.959Z,103247.41
2023-04-03T13:32:05.872Z,103256.34
2023-04-03T13:34:39.564Z,103267.72
2023-04-03T13:37:08.979Z,103272.06
2023-04-03T13:39:38.754Z,103253.03
2023-04-03T13:42:27.881Z,103249.88
2023-04-03T13:45:29.254Z,103251.06
2023-04-03T13:48:24.113Z,103251.81
2023-04-03T13:50:55.400Z,103251.34
2023-04-03T13:53:22.222Z,103254.41
2023-04-03T13:55:58.454Z,103256.16
2023-04-03T13:58:30.212Z,103246.16
2023-04-03T14:01:11.568Z,103253.81
2023-04-03T14:03:48.130Z,103248.06
2023-04-03T14:06:17.591Z,103237.91
2023-04-03T14:08:46.234Z,103232.72
2023-04-03T14:11:19.777Z,103241.84
2023-04-03T14:13:47.905Z,103230.47
2023-04-03T14:16:17.740Z,103224.09
2023-04-03T14:18:49.056Z,103220.44
2023-04-03T14:21:17.461Z,103224.13
2023-04-03T14:23:44.220Z,103219.97
2023-04-03T14:26:20.077Z,103208.91
2023-04-03T14:28:48.881Z,103207.25
2023-04-03T14:31:16.968Z,103204.53
2023-04-03T14:33:43.447Z,103211.72
2023-04-03T14:36:12.925Z,103210.69
2023-04-03T14:38:39.825Z,103199.34
2023-04-03T14:41:15.657Z,103198.28
2023-04-03T14:43:43.964Z,103204.63
2023-04-03T14:46:32.391Z,103203.59
2023-04-03T14:49:15.211Z,103193.44
2023-04-03T14:51:41.731Z,103195.09
2023-04-03T14:54:15.356Z,103204.50
2023-04-03T14:56:42.325Z,103191.06
2023-04-03T14:59:12.546Z,103199.53
2023-04-03T15:01:38.989Z,103190.72
2023-04-03T15:04:14.279Z,103195.53
2023-04-03T15:06:41.142Z,103201.63
2023-04-03T15:09:20.317Z,103199.38
2023-04-03T15:11:46.839Z,103199.41
2023-04-03T15:14:13.205Z,103203.31
2023-04-03T15:16:39.638Z,103197.03
2023-04-03T15:19:06.432Z,103199.19
2023-04-03T15:21:32.814Z,103197.91
2023-04-03T15:24:01.580Z,103199.28
2023-04-03T15:26:28.842Z,103201.47
2023-04-03T15:28:55.278Z,103204.94
2023-04-03T15:31:21.720Z,103204.56
2023-04-03T15:33:48.104Z,103214.81
2023-04-03T15:36:29.115Z,103194.78
2023-04-03T15:38:59.521Z,103207.75
2023-04-03T15:41:25.982Z,103198.56
2023-04-03T15:43:52.411Z,103200.13
2023-04-03T15:46:18.881Z,103191.25
2023-04-03T15:48:45.916Z,103198.66
2023-04-03T15:51:12.314Z,103190.84
2023-04-03T15:53:38.858Z,103193.31
2023-04-03T15:56:05.740Z,103190.84
2023-04-03T15:58:32.205Z,103185.91
2023-04-03T16:00:58.772Z,103190.38
2023-04-03T16:03:25.651Z,103191.16
2023-04-03T16:05:52.641Z,103195.84
2023-04-03T16:08:19.650Z,103199.03
2023-04-03T16:10:48.850Z,103203.50
2023-04-03T16:13:15.865Z,103197.03
2023-04-03T16:15:42.605Z,103203.78
2023-04-03T16:18:09.652Z,103190.97
2023-04-03T16:20:36.592Z,103197.22
2023-04-03T16:23:03.677Z,103197.09
2023-04-03T16:25:31.881Z,103195.16
2023-04-03T16:27:58.278Z,103202.25
2023-04-03T16:30:24.730Z,103202.88
2023-04-03T16:32:51.314Z,103206.66
2023-04-03T16:35:17.804Z,103198.41
2023-04-03T16:37:44.317Z,103199.47
2023-04-03T16:40:11.044Z,103195.13
2023-04-03T16:42:38.199Z,103203.97
2023-04-03T16:45:06.832Z,103204.00
2023-04-03T16:47:33.320Z,103216.00
2023-04-03T16:49:59.791Z,103202.34
2023-04-03T16:52:26.393Z,103201.13
2023-04-03T16:54:56.284Z,103199.88
2023-04-03T16:57:25.596Z,103202.97
2023-04-03T16:59:52.854Z,103207.03
2023-04-03T17:02:20.921Z,103205.88
2023-04-03T17:04:48.205Z,103198.34
2023-04-03T17:07:15.523Z,103210.09
2023-04-03T17:09:41.920Z,103191.88
2023-04-03T17:12:08.383Z,103193.34
2023-04-03T17:14:34.868Z,103194.44
2023-04-03T17:17:01.679Z,103199.81
2023-04-03T17:19:28.915Z,103202.53
2023-04-03T17:21:56.093Z,103202.63
2023-04-03T17:24:22.681Z,103200.88
2023-04-03T17:26:49.215Z,103193.59
2023-04-03T17:29:15.724Z,103195.03
2023-04-03T17:31:42.163Z,103192.03
2023-04-03T17:34:11.966Z,103194.06
2023-04-03T17:36:39.462Z,103202.03
2023-04-03T17:39:05.998Z,103204.66
2023-04-03T17:41:32.658Z,103206.38
2023-04-03T17:43:59.226Z,103208.06
2023-04-03T17:46:26.889Z,103208.72
2023-04-03T17:48:53.464Z,103208.28
2023-04-03T17:51:23.129Z,103211.34
2023-04-03T17:53:50.005Z,103215.50
2023-04-03T17:56:19.645Z,103215.06
2023-04-03T17:58:46.326Z,103213.59
2023-04-03T18:01:21.602Z,103216.25
2023-04-03T18:03:49.467Z,103213.38
2023-04-03T18:06:18.606Z,103216.72
2023-04-03T18:08:54.664Z,103220.47
2023-04-03T18:11:27.261Z,103219.47
2023-04-03T18:13:55.356Z,103217.50
2023-04-03T18:16:21.890Z,103219.25
2023-04-03T18:18:50.688Z,103225.41
2023-04-03T18:21:20.584Z,103220.75
2023-04-03T18:23:51.102Z,103223.75
2023-04-03T18:26:19.878Z,103218.22
2023-04-03T18:28:53.943Z,103221.78
2023-04-03T18:31:21.515Z,103226.47
2023-04-03T18:33:47.967Z,103220.00
2023-04-03T18:38:45.887Z,103226.50
2023-04-03T18:41:12.460Z,103231.69
2023-04-03T18:43:38.976Z,103225.72
2023-04-03T18:46:07.050Z,103232.97
2023-04-03T18:48:34.661Z,103233.44
2023-04-03T18:51:02.254Z,103231.81
2023-04-03T18:53:28.781Z,103230.78
2023-04-03T18:55:55.190Z,103229.47
2023-04-03T18:58:21.593Z,103231.31
2023-04-03T19:00:48.108Z,103230.72
2023-04-03T19:03:14.786Z,103238.63
2023-04-03T19:05:41.722Z,103232.03
2023-04-03T19:08:08.536Z,103229.63
2023-04-03T19:10:35.024Z,103227.06
2023-04-03T19:13:01.534Z,103231.63
2023-04-03T19:15:28.177Z,103234.50
2023-04-03T19:17:54.632Z,103236.59
2023-04-03T19:20:21.301Z,103236.81
2023-04-03T19:22:47.781Z,103234.41
2023-04-03T19:25:14.412Z,103230.41
2023-04-03T19:27:41.818Z,103236.78
2023-04-03T19:30:11.206Z,103237.88
2023-04-03T19:32:37.658Z,103244.84
2023-04-03T19:35:05.092Z,103237.94
2023-04-03T19:37:31.734Z,103239.75
2023-04-03T19:39:58.276Z,103232.22
2023-04-03T19:42:28.302Z,103238.16
2023-04-03T19:44:55.346Z,103230.59
2023-04-03T19:47:22.245Z,103224.88
2023-04-03T19:49:49.025Z,103224.38
2023-04-03T19:52:15.533Z,103228.91
2023-04-03T19:54:41.967Z,103225.97
2023-04-03T19:57:08.743Z,103229.59
2023-04-03T19:59:35.469Z,103229.81
2023-04-03T20:02:01.948Z,103231.78
2023-04-03T20:04:28.446Z,103234.50
2023-04-03T20:06:54.957Z,103239.78
2023-04-03T20:09:22.193Z,103243.44
2023-04-03T20:11:48.632Z,103236.91
2023-04-03T20:14:16.693Z,103241.50
2023-04-03T20:16:44.581Z,103243.63
2023-04-03T20:19:11.503Z,103244.22
2023-04-03T20:21:38.682Z,103253.84
2023-04-03T20:24:09.341Z,103245.69
2023-04-03T20:26:43.729Z,103254.44
2023-04-03T20:29:10.484Z,103254.94
2023-04-03T20:31:38.414Z,103253.63
2023-04-03T20:34:04.886Z,103251.25
2023-04-03T20:36:31.814Z,103253.16
2023-04-03T20:38:58.255Z,103255.78
2023-04-03T20:41:24.946Z,103258.28
2023-04-03T20:43:51.659Z,103253.34
2023-04-03T20:46:20.089Z,103244.38
2023-04-03T20:48:50.054Z,103252.13
2023-04-03T20:51:19.637Z,103244.31
2023-04-03T20:53:47.525Z,103242.47
2023-04-03T20:56:14.464Z,103234.59
2023-04-03T20:58:43.625Z,103227.56
2023-04-03T21:01:15.945Z,103224.00
2023-04-03T21:03:43.407Z,103226.84
2023-04-03T21:06:48.084Z,103234.97
2023-04-03T21:09:52.302Z,103230.94
2023-04-03T21:12:56.489Z,103237.13
2023-04-03T21:15:59.732Z,103239.53
2023-04-03T21:19:00.686Z,103243.00
2023-04-03T21:21:27.147Z,103246.59
2023-04-03T21:23:54.982Z,103257.97
2023-04-03T21:26:22.795Z,103247.91
2023-04-03T21:28:52.762Z,103255.78
2023-04-03T21:31:21.224Z,103255.22
2023-04-03T21:36:15.238Z,103241.53
2023-04-03T21:38:42.142Z,103248.72
2023-04-03T21:41:08.564Z,103246.41
2023-04-03T21:43:34.954Z,103249.09
2023-04-03T21:46:01.859Z,103254.22
2023-04-03T21:48:30.922Z,103247.28
2023-04-03T21:51:04.902Z,103246.41
2023-04-03T21:53:32.390Z,103238.78
2023-04-03T21:56:00.171Z,103242.38
2023-04-03T21:58:31.940Z,103230.72
2023-04-03T22:01:07.920Z,103235.25
2023-04-03T22:03:34.926Z,103239.81
2023-04-03T22:06:01.324Z,103242.59
2023-04-03T22:08:28.778Z,103236.72
2023-04-03T22:11:02.478Z,103239.22
2023-04-03T22:13:29.466Z,103231.53
2023-04-03T22:15:56.818Z,103233.13
2023-04-03T22:18:23.460Z,103227.44
2023-04-03T22:20:56.227Z,103219.03
2023-04-03T22:23:23.307Z,103219.03
2023-04-03T22:26:00.395Z,103207.00
2023-04-03T22:28:27.672Z,103211.31
2023-04-03T22:30:54.667Z,103215.59
2023-04-03T22:33:21.345Z,103217.38
2023-04-03T22:35:48.714Z,103204.56
2023-04-03T22:38:15.937Z,103213.16
2023-04-03T22:40:43.071Z,103211.72
2023-04-03T22:43:09.841Z,103211.09
2023-04-03T22:45:36.882Z,103207.06
2023-04-03T22:48:03.640Z,103210.72
2023-04-03T22:50:30.168Z,103212.59
2023-04-03T22:52:56.611Z,103211.81
2023-04-03T22:55:24.398Z,103216.03
2023-04-03T22:57:50.767Z,103209.44
2023-04-03T23:00:17.692Z,103205.09
2023-04-03T23:02:44.119Z,103210.25
2023-04-03T23:05:10.688Z,103214.91
2023-04-03T23:07:37.107Z,103213.66
2023-04-03T23:10:04.645Z,103213.94
2023-04-03T23:12:31.050Z,103221.56
2023-04-03T23:14:57.419Z,103213.84
2023-04-03T23:17:23.817Z,103209.47
2023-04-03T23:19:50.214Z,103218.72
2023-04-03T23:22:16.622Z,103222.28
2023-04-03T23:24:43.695Z,103228.88
2023-04-03T23:27:10.240Z,103238.91
2023-04-03T23:29:42.006Z,103229.66
2023-04-03T23:32:08.411Z,103233.16
2023-04-03T23:34:34.905Z,103231.56
2023-04-03T23:37:01.838Z,103235.69
2023-04-03T23:39:28.282Z,103230.81
2023-04-03T23:41:55.040Z,103236.81
2023-04-03T23:44:21.737Z,103232.59
2023-04-03T23:46:48.168Z,103234.38
2023-04-03T23:49:14.557Z,103242.16
2023-04-03T23:51:41.288Z,103243.94
2023-04-03T23:54:07.715Z,103239.81
2023-04-03T23:56:34.072Z,103238.31
2023-04-03T23:59:01.074Z,103235.84
